Coweta, OK

12:49 PM CDT on March 27, 2015 (GMT -0500)
Pecan Grove | | Change Station
CLOSE
Current Station
Personal Weather Station
Location: Coweta, OK
Elevation: 720 ft
Nearby Weather Stations

Elev 720 ft 35.97 °N, 95.72 °W | Updated 1 second ago

Mostly Cloudy
Mostly Cloudy
50.2 °F
Feels Like 50.2 °F
N
7.0
Wind Variable Wind from NNW
Gusts 11.0 mph

Today
High -- | Low -- °F
--% Chance of Precip.
Yesterday
High -- | Low -- °F
Precip. -- in
7:16 AM 7:40 PM
First Quarter, 54% visible
Pressure 30.27 in
Visibility 10.0 miles
Clouds Mostly Cloudy 3200 ft
Dew Point 36 °F
Humidity 58%
Rainfall 0.00 in
Snow Depth Not available.
UV 4 out of 12
Pollen 9.60 out of 12
Air Quality Not available.
Flu Activity Not available.
METAR KRVS 271653Z 36012G20KT 10SM BKN032 09/01 A3025 RMK AO2 SLP250 T00940011

More Conditions Fewer Conditions

Pressure 30.27 in
Visibility 10.0 miles
Clouds Mostly Cloudy 3200 ft
Dew Point 36 °F
Humidity 58%
Rainfall 0.00 in
Snow Depth Not available.
UV 4 out of 12
Pollen 9.60 out of 12
Air Quality Not available.
Flu Activity Not available.
METAR KRVS 271653Z 36012G20KT 10SM BKN032 09/01 A3025 RMK AO2 SLP250 T00940011

More Conditions Fewer Conditions

Nowcast | as of 12:26 PM CDT on March 27, 2015

At 12:26 PM...Doppler radars indicated isolated very light showers over Choctaw County in far southeast Oklahoma. This activity continues to quickly move off to the southeast at around 40 mph. Through 1:30 PM...passing light showers or occasional sprinkles will be possible for Choctaw County. Trace amounts to a couple hundredths of an inch of rainfall may occur across the area before the precipitation dissipates or moves out of the area. This will be the final short term forecast issued for this event.

×

10-Day Weather Forecast

Almanac

Astronomy

Mar. 27, 2015 Rise Set
Actual Time
Civil Twilight
Nautical Twilight
Astronomical Twilight
Moon
Length of Visible Light
Length of Day
Tomorrow will be .
, % of the Moon is Illuminated

Today's Extremes

State Highs State Lows

Community

WunderPhotos

Upload Photos

1,808,772 photos uploaded!

WunderBlogs® & News

Nearby

Air Quality

  Air Quality AQ Index Pollutant
Not available.

Snow Depth

Station Depth Elevation

Earthquake Activity

City Distance Mag. Time & Date
Minimum magnitude displayed is 2.5.

Coastal Water Temperatures

Place Temperature

Stations

Nearby Weather Stations

Station Location Temp. Windchill Dew Point Humidity Wind Precip. Elev Updated Type